• Join FlightAware (Why Join?)
  • Login
  • US Flag 
01:37PM EDT


 

Airport Tracker/Info


-or-


 

Live Flight TrackerFlight Track Log ✈ SKW5564 ✈ 2013年 09月 06日 ✈ KDEN - KBIS

Flight Track Log - Related Links

Times and Time Zones

All times are in EDT time to prevent confusion due to time zone crossing. See the SKW5564 flight status page for this flight to view local times or setup timezone preferences in your user account.

Time Position Orientation Groundspeed Altitude Reporting Facility
EDT Latitude Longitude Course Direction KTS MPH feet Rate Location/Type
12:20AM 40.2044 -104.4996 21° North  Level Estimated
12:21AM 40.3186 -104.4414 21° North  Level Estimated
12:22AM 40.4328 -104.3830 21° North  Level Estimated
12:23AM 40.5469 -104.3243 21° North  Level Estimated
12:24AM 40.6610 -104.2655 21° North  Level Estimated
12:25AM 40.7751 -104.2065 21° North  Level Estimated
12:26AM 40.8891 -104.1472 21° North  Level Estimated
12:27AM 41.0031 -104.0878 21° North  Level Estimated
12:28AM 41.1171 -104.0282 22° Northeast  Level Estimated
12:29AM 41.2310 -103.9683 22° Northeast  Level Estimated
12:30AM 41.3450 -103.9082 22° Northeast  Level Estimated
12:31AM 41.4589 -103.8480 22° Northeast  Level Estimated
12:32AM 41.5727 -103.7875 22° Northeast  Level Estimated
12:33AM 41.6866 -103.7268 22° Northeast  Level Estimated
12:34AM 41.8003 -103.6659 22° Northeast  Level Estimated
12:35AM 41.9141 -103.6048 22° Northeast  Level Estimated
12:36AM 42.0278 -103.5434 22° Northeast  Level Estimated
12:37AM 42.1415 -103.4818 22° Northeast  Level Estimated
12:38AM 42.2552 -103.4200 22° Northeast  Level Estimated
12:39AM 42.3688 -103.3580 22° Northeast  Level Estimated
12:40AM 42.4824 -103.2958 22° Northeast  Level Estimated
12:41AM 42.5960 -103.2333 22° Northeast  Level Estimated
12:42AM 42.7095 -103.1706 22° Northeast  Level Estimated
12:43AM 42.8230 -103.1077 22° Northeast  Level Estimated
12:44AM 42.9365 -103.0446 22° Northeast  Level Estimated
12:45AM 43.0499 -102.9812 22° Northeast  Level Estimated
12:46AM 43.1633 -102.9176 22° Northeast  Level Estimated
12:47AM 43.2766 -102.8537 22° Northeast  Level Estimated
12:48AM 43.3899 -102.7896 22° Northeast  Level Estimated
12:49AM 43.5032 -102.7253 22° Northeast  Level Estimated
12:50AM 43.6165 -102.6607 22° Northeast  Level Estimated
12:51AM 43.7297 -102.5959 22° Northeast  Level Estimated
12:52AM 43.8428 -102.5308 23° Northeast  Level Estimated
12:53AM 43.9560 -102.4655 23° Northeast  Level Estimated
12:54AM 44.0691 -102.3999 23° Northeast  Level Estimated
12:55AM 44.1822 -102.3341 23° Northeast  Level Estimated
12:56AM 44.2952 -102.2680 23° Northeast  Level Estimated
12:57AM 44.4082 -102.2017 23° Northeast  Level Estimated
12:58AM 44.5211 -102.1351 23° Northeast  Level Estimated
12:59AM 44.6340 -102.0683 23° Northeast  Level Estimated
01:00AM 44.7469 -102.0012 23° Northeast  Level Estimated
01:01AM 44.8597 -101.9338 23° Northeast  Level Estimated
01:02AM 44.9725 -101.8662 23° Northeast  Level Estimated
01:03AM 45.0853 -101.7983 23° Northeast  Level Estimated
01:04AM 45.1980 -101.7302 23° Northeast  Level Estimated
01:05AM 45.3106 -101.6617 23° Northeast  Level Estimated
01:06AM 45.4233 -101.5930 23° Northeast  Level Estimated
01:07AM 45.5359 -101.5240 23° Northeast  Level Estimated
01:08AM 45.6484 -101.4548 23° Northeast  Level Estimated
01:09AM 45.7609 -101.3853 23° Northeast  Level Estimated
01:10AM 45.8734 -101.3155 23° Northeast  Level Estimated
01:11AM 45.9858 -101.2454 23° Northeast  Level Estimated
01:12AM 46.0981 -101.1750 23° Northeast  Level Estimated
01:13AM 46.2105 -101.1043 24° Northeast  Level Estimated
01:14AM 46.3228 -101.0333 24° Northeast  Level Estimated
01:15AM 46.4350 -100.9621 24° Northeast  Level Estimated
01:16AM 46.5472 -100.8905 24° Northeast  Level Estimated
01:17AM 46.6594 -100.8187 24° Northeast  Level Estimated
01:18AM 46.7715 -100.7466 24° Northeast  Level Estimated
01:19AM 46.7727 -100.7458 24° Northeast  Level Estimated
01:20AM 46.7727 -100.7458 North  Level Estimated
01:21AM 46.7727 -100.7458 North  Level Estimated
01:22AM 46.7727 -100.7458 North  Level Estimated
01:23AM 46.7727 -100.7458 North  Level Estimated
01:24AM 46.7727 -100.7458 North  Level Estimated
01:25AM 46.7727 -100.7458 North  Level Estimated
01:26AM 46.7727 -100.7458 North  Level Estimated
01:27AM 46.7727 -100.7458 North  Level Estimated